Time;durP1;ratioP1;P1;durP2;ratioP2;P2;SDS_P1;SDS_P2;PMS_P1;PMS_P2;Temp;Humidity;BMP_temperature;BMP_pressure;BME280_temperature;BME280_humidity;BME280_pressure;Samples;Min_cycle;Max_cycle;Signal;HPM_P1;HPM_P2
2024/03/12 00:00:53;;;;;;;4.80;4.40;;;;;;;8.95;78.44;100126.88;5032411;28;20232;-77
2024/03/12 00:03:19;;;;;;;5.47;4.60;;;;;;;9.04;78.00;100131.03;5032536;28;20273;-77
2024/03/12 00:05:45;;;;;;;5.57;5.07;;;;;;;9.04;78.15;100139.72;5032344;28;20285;-77
2024/03/12 00:08:12;;;;;;;5.07;4.67;;;;;;;8.96;77.75;100149.44;5031317;28;20261;-76
2024/03/12 00:10:40;;;;;;;4.93;4.40;;;;;;;9.03;77.96;100151.00;5031723;28;20231;-77
2024/03/12 00:13:07;;;;;;;4.73;4.33;;;;;;;9.06;78.03;100153.59;5032183;28;20214;-77
2024/03/12 00:15:36;;;;;;;4.93;4.53;;;;;;;9.08;77.47;100157.00;5032395;28;20206;-77
2024/03/12 00:18:05;;;;;;;5.77;4.80;;;;;;;8.97;77.85;100165.91;5032018;28;20211;-76
2024/03/12 00:20:33;;;;;;;5.27;4.83;;;;;;;8.97;78.08;100163.28;5035409;28;20227;-77
2024/03/12 00:23:00;;;;;;;5.33;4.83;;;;;;;9.05;78.01;100158.81;5031799;28;20684;-76
2024/03/12 00:25:28;;;;;;;5.67;4.73;;;;;;;9.02;77.25;100166.66;5032147;28;20736;-76
2024/03/12 00:27:55;;;;;;;5.00;4.70;;;;;;;8.95;77.21;100181.53;5031889;28;20619;-77
2024/03/12 00:30:24;;;;;;;5.33;4.83;;;;;;;8.91;77.27;100195.47;5031368;28;20226;-77
2024/03/12 00:32:52;;;;;;;4.70;4.33;;;;;;;8.96;77.57;100185.88;5032195;28;20208;-76
2024/03/12 00:35:18;;;;;;;6.57;5.20;;;;;;;8.85;77.42;100196.44;5031757;28;20226;-77
2024/03/12 00:37:46;;;;;;;4.83;4.40;;;;;;;8.92;77.27;100187.66;5031278;28;20276;-76
2024/03/12 00:40:13;;;;;;;5.03;4.63;;;;;;;8.85;77.06;100203.38;5031661;28;20262;-75
2024/03/12 00:42:40;;;;;;;5.33;4.83;;;;;;;8.94;76.99;100198.06;5031893;28;20208;-77
2024/03/12 00:45:11;;;;;;;5.70;5.20;;;;;;;9.00;77.27;100208.38;5031818;28;20239;-77
2024/03/12 00:47:37;;;;;;;5.07;4.63;;;;;;;8.98;76.77;100214.44;5030583;28;20340;-77
2024/03/12 00:50:07;;;;;;;5.70;5.23;;;;;;;9.03;76.88;100217.84;5033072;28;20308;-77
2024/03/12 00:52:33;;;;;;;4.50;4.20;;;;;;;8.89;76.93;100221.53;5030070;28;20588;-77
2024/03/12 00:55:00;;;;;;;5.30;4.90;;;;;;;8.69;76.97;100221.84;5031318;28;20266;-77
2024/03/12 00:57:27;;;;;;;5.17;4.67;;;;;;;8.74;76.91;100213.94;5031639;28;20210;-76
2024/03/12 00:59:53;;;;;;;4.93;4.40;;;;;;;8.69;76.76;100223.59;5031406;28;20284;-77
2024/03/12 01:02:22;;;;;;;5.13;4.73;;;;;;;8.63;77.07;100215.88;5031585;28;20301;-75
2024/03/12 01:04:49;;;;;;;5.73;5.10;;;;;;;8.58;77.43;100209.88;5031387;28;20233;-76
2024/03/12 01:07:19;;;;;;;5.60;5.03;;;;;;;8.51;77.86;100206.50;5031576;28;20213;-77
2024/03/12 01:09:46;;;;;;;4.50;4.10;;;;;;;8.55;78.21;100195.16;5031157;28;20234;-77
2024/03/12 01:12:13;;;;;;;4.70;4.30;;;;;;;8.60;78.07;100187.28;5031701;28;20202;-77
2024/03/12 01:14:40;;;;;;;5.20;4.80;;;;;;;8.59;77.97;100181.22;5031358;28;20217;-77
2024/03/12 01:17:06;;;;;;;4.33;4.03;;;;;;;8.61;77.72;100183.81;5031432;28;20264;-77
2024/03/12 01:19:35;;;;;;;4.60;4.20;;;;;;;8.61;77.91;100189.88;5031323;28;20229;-76
2024/03/12 01:22:04;;;;;;;4.60;4.20;;;;;;;8.61;77.73;100189.03;5034193;28;20225;-76
2024/03/12 01:24:30;;;;;;;4.83;4.43;;;;;;;8.57;77.60;100192.56;5031311;28;20214;-77
2024/03/12 01:26:57;;;;;;;4.63;4.30;;;;;;;8.43;77.78;100195.34;5031000;28;20211;-76
2024/03/12 01:29:24;;;;;;;5.17;4.67;;;;;;;8.45;77.83;100186.63;5031189;28;20668;-77
2024/03/12 01:31:52;;;;;;;3.97;3.67;;;;;;;8.52;77.44;100192.59;5031091;28;20210;-77
2024/03/12 01:34:19;;;;;;;4.47;4.07;;;;;;;8.50;77.17;100199.56;5033523;28;20255;-77
2024/03/12 01:36:48;;;;;;;4.53;4.13;;;;;;;8.45;77.29;100210.03;5035018;28;20211;-77
2024/03/12 01:39:16;;;;;;;4.40;4.00;;;;;;;8.51;77.34;100211.69;5034762;28;20734;-76
2024/03/12 01:41:44;;;;;;;4.90;4.20;;;;;;;8.45;77.17;100215.25;5035095;28;20206;-76
2024/03/12 01:44:11;;;;;;;4.57;4.17;;;;;;;8.35;77.38;100217.06;5034986;28;20210;-77
2024/03/12 01:46:38;;;;;;;4.40;4.10;;;;;;;8.35;78.32;100205.81;5034809;28;20210;-76
2024/03/12 01:49:05;;;;;;;4.27;3.97;;;;;;;8.34;77.86;100204.09;5034766;28;20250;-77
2024/03/12 01:51:33;;;;;;;5.67;3.93;;;;;;;8.33;77.41;100204.97;5038882;28;20206;-77
2024/03/12 01:54:03;;;;;;;6.27;4.13;;;;;;;8.28;77.70;100202.41;5034752;28;20258;-76
2024/03/12 01:56:30;;;;;;;4.33;4.00;;;;;;;8.15;78.07;100204.34;5034879;28;20214;-76
2024/03/12 01:58:57;;;;;;;7.00;4.43;;;;;;;8.15;77.89;100195.69;5034257;28;20235;-76
2024/03/12 02:01:24;;;;;;;4.30;4.00;;;;;;;8.14;77.69;100199.16;5034927;28;20244;-77
2024/03/12 02:03:51;;;;;;;4.37;4.00;;;;;;;8.12;78.11;100193.13;5035098;28;20242;-77
2024/03/12 02:06:19;;;;;;;4.83;4.00;;;;;;;8.05;78.04;100189.75;5035212;28;20680;-76
2024/03/12 02:08:45;;;;;;;4.70;4.30;;;;;;;8.04;78.82;100181.97;5034351;28;20208;-77
2024/03/12 02:11:13;;;;;;;3.90;3.60;;;;;;;7.95;78.79;100177.75;5034471;28;20207;-77
2024/03/12 02:13:40;;;;;;;5.50;3.90;;;;;;;7.96;79.14;100176.84;5034295;28;20622;-76
2024/03/12 02:16:07;;;;;;;5.13;4.60;;;;;;;7.93;79.23;100175.16;5034180;28;20208;-77
2024/03/12 02:18:33;;;;;;;5.10;4.33;;;;;;;7.92;78.89;100173.44;5034283;28;20207;-77
2024/03/12 02:21:00;;;;;;;4.63;4.17;;;;;;;7.83;78.92;100172.69;5037888;28;20229;-78
2024/03/12 02:23:35;;;;;;;4.40;4.10;;;;;;;7.81;78.57;100177.91;5034115;28;20207;-77
2024/03/12 02:26:01;;;;;;;5.13;4.10;;;;;;;7.84;78.86;100175.25;5033991;28;20684;-77
2024/03/12 02:28:28;;;;;;;3.67;3.37;;;;;;;7.78;78.50;100177.94;5034230;28;20211;-77
2024/03/12 02:30:54;;;;;;;3.50;3.30;;;;;;;7.80;78.83;100170.13;5033926;28;20228;-77
2024/03/12 02:33:20;;;;;;;4.30;3.30;;;;;;;7.82;78.78;100166.63;5034122;28;20540;-77
2024/03/12 02:35:47;;;;;;;4.10;3.70;;;;;;;7.83;79.30;100176.16;5033969;28;20235;-77
2024/03/12 02:38:13;;;;;;;3.90;3.60;;;;;;;7.83;79.21;100167.47;5034036;28;20204;-77
2024/03/12 02:40:41;;;;;;;4.17;3.87;;;;;;;7.82;79.39;100171.81;5033665;28;20232;-77
2024/03/12 02:43:07;;;;;;;5.13;3.23;;;;;;;7.81;79.16;100172.72;5034128;28;20208;-76
2024/03/12 02:45:33;;;;;;;4.43;4.00;;;;;;;7.75;78.82;100170.19;5033039;28;20354;-78
2024/03/12 02:48:00;;;;;;;4.00;3.60;;;;;;;7.72;79.21;100160.69;5033876;28;20207;-76
2024/03/12 02:50:27;;;;;;;3.70;3.47;;;;;;;7.67;79.53;100166.81;5037528;28;20234;-77
2024/03/12 02:52:55;;;;;;;5.03;3.50;;;;;;;7.70;78.95;100175.44;5031645;28;20263;-77
2024/03/12 02:55:21;;;;;;;4.20;3.80;;;;;;;7.64;79.22;100177.25;5032197;28;20230;-77
2024/03/12 02:57:49;;;;;;;3.77;3.47;;;;;;;7.67;79.21;100184.97;5033685;28;20255;-77
2024/03/12 03:00:16;;;;;;;4.13;3.77;;;;;;;7.65;79.37;100192.81;5033437;28;20223;-77
2024/03/12 03:02:44;;;;;;;4.60;4.20;;;;;;;7.68;78.98;100195.38;5033675;28;20207;-77
2024/03/12 03:05:10;;;;;;;4.90;4.50;;;;;;;7.62;78.82;100215.38;5033507;28;20196;-77
2024/03/12 03:07:37;;;;;;;6.03;4.17;;;;;;;7.36;79.12;100214.75;5033105;28;20234;-77
2024/03/12 03:10:03;;;;;;;4.83;4.43;;;;;;;7.48;79.45;100197.31;5032318;28;20239;-77
2024/03/12 03:12:30;;;;;;;4.43;4.03;;;;;;;7.58;78.82;100188.56;5032959;28;20492;-77
2024/03/12 03:14:57;;;;;;;4.40;4.10;;;;;;;7.63;79.56;100184.19;5033218;28;20258;-77
2024/03/12 03:17:24;;;;;;;4.50;4.10;;;;;;;7.63;79.34;100191.97;5031339;28;20241;-77
2024/03/12 03:19:50;;;;;;;4.13;3.77;;;;;;;7.68;79.20;100186.72;5034364;28;20860;-77
2024/03/12 03:22:17;;;;;;;3.70;3.43;;;;;;;7.61;79.04;100191.13;5034963;28;20207;-77
2024/03/12 03:24:43;;;;;;;4.37;3.97;;;;;;;7.58;79.54;100201.53;5033368;28;20239;-77
2024/03/12 03:27:10;;;;;;;4.63;4.33;;;;;;;7.39;79.69;100206.03;5033139;28;20206;-77
2024/03/12 03:29:37;;;;;;;4.17;3.87;;;;;;;7.41;80.47;100185.25;5032886;28;20223;-77
2024/03/12 03:32:06;;;;;;;4.60;4.20;;;;;;;7.45;80.30;100169.66;5033035;28;20211;-77
2024/03/12 03:34:33;;;;;;;4.20;3.80;;;;;;;7.45;80.96;100168.78;5032904;28;20305;-77
2024/03/12 03:36:59;;;;;;;4.20;3.90;;;;;;;7.43;81.18;100162.75;5032714;28;20242;-77
2024/03/12 03:39:28;;;;;;;3.77;3.47;;;;;;;7.46;80.85;100145.41;5032639;28;20749;-77
2024/03/12 03:41:55;;;;;;;4.30;3.97;;;;;;;7.52;81.54;100137.53;5032896;28;20674;-78
2024/03/12 03:44:22;;;;;;;4.60;4.13;;;;;;;7.61;81.20;100136.59;5032797;28;20209;-77
2024/03/12 03:46:48;;;;;;;4.63;4.23;;;;;;;7.67;81.58;100138.22;5032680;28;20256;-77
2024/03/12 03:49:16;;;;;;;4.07;3.77;;;;;;;7.64;81.75;100130.47;5032273;28;20261;-77
2024/03/12 03:51:42;;;;;;;4.20;3.90;;;;;;;7.68;82.08;100112.22;5037844;28;20233;-77
2024/03/12 03:54:09;;;;;;;4.10;3.80;;;;;;;7.76;82.65;100109.53;5032525;28;20246;-77
2024/03/12 03:56:35;;;;;;;4.50;4.20;;;;;;;7.76;83.14;100104.34;5031933;28;20551;-77
2024/03/12 03:59:05;;;;;;;3.90;3.60;;;;;;;7.81;83.53;100092.16;5032162;28;20226;-77
2024/03/12 04:01:31;;;;;;;4.20;3.90;;;;;;;7.89;83.28;100090.31;5032420;28;20211;-78
2024/03/12 04:03:58;;;;;;;4.23;3.83;;;;;;;7.80;82.91;100094.78;5032811;28;20209;-77
2024/03/12 04:06:27;;;;;;;4.30;4.00;;;;;;;7.83;83.69;100090.41;5032648;28;20665;-77
2024/03/12 04:08:53;;;;;;;4.40;4.07;;;;;;;7.88;83.61;100075.59;5031929;28;20212;-77
2024/03/12 04:11:21;;;;;;;5.00;4.60;;;;;;;7.84;83.84;100081.72;5032347;28;20239;-78
2024/03/12 04:13:47;;;;;;;4.43;4.03;;;;;;;7.90;83.62;100083.38;5032054;28;20585;-77
2024/03/12 04:16:14;;;;;;;4.47;4.07;;;;;;;7.93;84.31;100080.75;5032078;28;20223;-77
2024/03/12 04:18:43;;;;;;;5.30;4.77;;;;;;;7.94;83.25;100082.44;5031844;28;20252;-77
2024/03/12 04:21:11;;;;;;;4.80;4.10;;;;;;;7.99;83.62;100097.97;5037708;28;20253;-76
2024/03/12 04:23:39;;;;;;;4.67;4.27;;;;;;;8.03;83.64;100097.94;5032086;28;20213;-77
2024/03/12 04:26:06;;;;;;;4.27;3.87;;;;;;;8.06;83.36;100092.66;5032197;28;20204;-77
2024/03/12 04:28:32;;;;;;;4.43;4.07;;;;;;;8.11;83.30;100101.28;5031939;28;20230;-77
2024/03/12 04:30:58;;;;;;;5.07;4.67;;;;;;;8.03;83.12;100116.13;5031540;28;20228;-77
2024/03/12 04:33:25;;;;;;;5.47;4.57;;;;;;;8.12;82.94;100109.94;5032003;28;20211;-77
2024/03/12 04:35:52;;;;;;;4.87;4.50;;;;;;;8.19;83.44;100110.72;5031931;28;20232;-77
2024/03/12 04:38:19;;;;;;;5.27;4.77;;;;;;;8.15;82.59;100121.16;5031680;28;20578;-77
2024/03/12 04:40:47;;;;;;;5.30;4.63;;;;;;;8.23;83.66;100118.44;5031461;28;20835;-77
2024/03/12 04:43:14;;;;;;;7.30;4.70;;;;;;;8.33;82.58;100134.78;5031807;28;20589;-78
2024/03/12 04:45:41;;;;;;;4.80;4.50;;;;;;;8.34;82.49;100141.66;5031574;28;20208;-77
2024/03/12 04:48:08;;;;;;;6.70;4.30;;;;;;;8.37;81.70;100159.84;5031747;28;20250;-77
2024/03/12 04:50:34;;;;;;;4.57;4.27;;;;;;;8.38;82.47;100152.91;5040155;28;20274;-77
2024/03/12 04:53:01;;;;;;;5.30;4.80;;;;;;;8.38;83.16;100148.53;5051478;28;20262;-77
2024/03/12 04:55:27;;;;;;;5.33;4.93;;;;;;;8.25;83.06;100155.69;5051506;28;20226;-77
2024/03/12 04:57:55;;;;;;;5.00;4.60;;;;;;;8.30;83.24;100145.19;5051326;28;20712;-77
2024/03/12 05:00:21;;;;;;;4.47;4.17;;;;;;;8.43;82.71;100149.38;5051173;28;20275;-77
2024/03/12 05:02:49;;;;;;;5.03;4.63;;;;;;;8.41;82.79;100153.75;5051447;28;20594;-77
2024/03/12 05:05:17;;;;;;;4.53;4.13;;;;;;;8.41;81.74;100176.28;5051588;28;20198;-77
2024/03/12 05:07:44;;;;;;;4.73;4.33;;;;;;;8.40;80.75;100197.94;5051439;28;20241;-77
2024/03/12 05:10:11;;;;;;;4.50;4.10;;;;;;;8.52;81.51;100198.69;5055156;28;20727;-77
2024/03/12 05:12:38;;;;;;;5.90;5.00;;;;;;;8.51;81.65;100204.75;5055362;28;20212;-77
2024/03/12 05:15:07;;;;;;;4.50;4.13;;;;;;;8.52;81.58;100210.81;5055534;28;20234;-77
2024/03/12 05:17:34;;;;;;;4.97;4.27;;;;;;;8.52;81.59;100203.00;5055519;28;20293;-77
2024/03/12 05:20:00;;;;;;;4.97;4.57;;;;;;;8.56;81.60;100204.66;5055207;28;20259;-77
2024/03/12 05:22:26;;;;;;;5.13;4.73;;;;;;;8.53;81.91;100205.59;5037432;28;20256;-77
2024/03/12 05:24:53;;;;;;;6.20;4.97;;;;;;;8.28;81.08;100219.78;5035424;28;20218;-77
2024/03/12 05:27:32;;;;;;;5.40;5.00;;;;;;;8.39;81.63;100217.91;5035110;28;20203;-77
2024/03/12 05:29:59;;;;;;;4.77;4.47;;;;;;;8.41;81.57;100212.69;5035168;28;20229;-77
2024/03/12 05:32:27;;;;;;;5.63;5.13;;;;;;;8.52;81.62;100214.28;5035412;28;20206;-77
2024/03/12 05:34:58;;;;;;;6.00;5.43;;;;;;;8.35;82.03;100219.69;5035178;28;20235;-77
2024/03/12 05:37:29;;;;;;;5.30;4.80;;;;;;;8.44;81.43;100208.31;5034941;28;20301;-76
2024/03/12 05:40:14;;;;;;;5.77;5.37;;;;;;;8.51;82.09;100215.16;5034828;28;20321;-77
2024/03/12 05:48:10;;;;;;;5.03;4.63;;;;;;;8.44;82.86;100202.25;5040020;28;20206;-78
2024/03/12 05:50:38;;;;;;;5.87;5.30;;;;;;;8.38;82.75;100192.75;5052306;28;20232;-78
2024/03/12 05:53:04;;;;;;;6.03;4.80;;;;;;;8.43;83.03;100193.59;5034818;28;20226;-77
2024/03/12 05:55:31;;;;;;;6.77;6.17;;;;;;;8.46;83.28;100183.16;5034868;28;20284;-77
2024/03/12 05:57:57;;;;;;;5.70;5.17;;;;;;;8.51;82.90;100188.28;5034676;28;20203;-77
2024/03/12 06:00:24;;;;;;;5.43;4.93;;;;;;;8.51;82.59;100201.28;5034607;28;20264;-77
2024/03/12 06:02:50;;;;;;;6.57;6.07;;;;;;;8.57;82.77;100205.56;5034613;28;20641;-77
2024/03/12 06:05:18;;;;;;;5.93;5.43;;;;;;;8.57;82.27;100201.22;5034853;28;20237;-77
2024/03/12 06:07:45;;;;;;;5.20;4.80;;;;;;;8.62;82.90;100209.81;5034699;28;20277;-77
2024/03/12 06:10:12;;;;;;;5.43;5.03;;;;;;;8.65;82.99;100201.94;5034171;28;20593;-77
2024/03/12 06:12:38;;;;;;;6.00;5.50;;;;;;;8.54;82.03;100220.34;5034416;28;20708;-77
2024/03/12 06:15:05;;;;;;;6.13;5.57;;;;;;;8.54;82.33;100229.84;5034272;28;20282;-78
2024/03/12 06:17:32;;;;;;;6.57;5.97;;;;;;;8.66;81.98;100232.31;5034429;28;20209;-77
2024/03/12 06:20:02;;;;;;;5.63;5.23;;;;;;;8.64;82.56;100244.47;5038029;28;20253;-75
2024/03/12 06:22:30;;;;;;;6.13;5.63;;;;;;;8.76;82.34;100243.44;5036717;28;20301;-77
2024/03/12 06:24:56;;;;;;;6.17;5.57;;;;;;;8.71;82.00;100255.66;5035209;28;20234;-78
2024/03/12 06:27:22;;;;;;;6.17;5.67;;;;;;;8.79;81.89;100252.94;5034168;28;20270;-77
2024/03/12 06:29:51;;;;;;;6.00;5.50;;;;;;;8.86;81.75;100258.03;5033807;28;20256;-77
2024/03/12 06:32:20;;;;;;;6.57;6.07;;;;;;;8.70;81.19;100270.41;5034169;28;20217;-77
2024/03/12 06:34:47;;;;;;;6.87;6.27;;;;;;;8.74;81.42;100277.28;5034232;28;20205;-77
2024/03/12 06:37:13;;;;;;;7.00;6.30;;;;;;;8.73;82.15;100272.09;5034076;28;20222;-77
2024/03/12 06:39:41;;;;;;;6.43;5.93;;;;;;;8.78;82.85;100264.22;5033418;28;20301;-77
2024/03/12 06:42:12;;;;;;;5.87;5.40;;;;;;;8.73;83.03;100252.13;5033876;28;20277;-77
2024/03/12 06:44:40;;;;;;;7.17;6.57;;;;;;;8.65;82.65;100247.94;5033862;28;20202;-77
2024/03/12 06:47:07;;;;;;;7.33;6.60;;;;;;;8.79;83.02;100247.72;5033789;28;20239;-77
2024/03/12 06:49:33;;;;;;;7.37;6.77;;;;;;;8.73;82.48;100266.91;5033803;28;20227;-77
2024/03/12 06:52:00;;;;;;;7.53;6.83;;;;;;;8.80;82.34;100267.66;5040326;28;20673;-77
2024/03/12 06:54:26;;;;;;;7.03;6.37;;;;;;;8.86;81.66;100275.38;5047041;28;20291;-77
2024/03/12 06:56:55;;;;;;;8.37;7.67;;;;;;;8.86;81.77;100291.88;5051505;28;20226;-78
2024/03/12 06:59:22;;;;;;;7.43;6.90;;;;;;;8.98;82.19;100287.34;5052780;28;20228;-77
2024/03/12 07:01:53;;;;;;;8.50;7.90;;;;;;;8.92;81.80;100286.56;5053527;28;20214;-77
2024/03/12 07:04:23;;;;;;;7.83;7.23;;;;;;;9.03;82.60;100283.78;5052920;28;20678;-78
2024/03/12 07:06:50;;;;;;;8.40;7.70;;;;;;;9.12;83.46;100269.78;5040698;28;20206;-78
2024/03/12 07:09:26;;;;;;;6.97;6.37;;;;;;;9.14;83.62;100263.66;5033287;28;20317;-77
2024/03/12 07:11:58;;;;;;;8.23;7.43;;;;;;;9.19;84.17;100258.38;5033895;28;20741;-77
2024/03/12 07:14:27;;;;;;;7.43;6.83;;;;;;;9.17;84.22;100249.72;5033962;28;20210;-77
2024/03/12 07:16:54;;;;;;;7.27;6.67;;;;;;;9.21;84.51;100242.72;5033484;28;20231;-77
2024/03/12 07:19:22;;;;;;;7.70;7.10;;;;;;;9.21;84.09;100234.91;5033315;28;20603;-77
2024/03/12 07:21:48;;;;;;;9.60;8.90;;;;;;;9.15;83.52;100252.34;5040435;28;20657;-76
2024/03/12 07:24:15;;;;;;;9.27;8.57;;;;;;;9.12;83.29;100261.97;5032923;28;20212;-77
2024/03/12 07:26:43;;;;;;;9.80;9.00;;;;;;;9.14;83.63;100260.22;5033359;28;20253;-77
2024/03/12 07:29:10;;;;;;;9.60;8.90;;;;;;;9.23;83.83;100253.97;5032763;28;20233;-77
2024/03/12 07:31:37;;;;;;;9.13;8.43;;;;;;;9.26;83.59;100260.00;5030741;28;20309;-79
2024/03/12 07:34:05;;;;;;;9.13;8.43;;;;;;;9.30;83.27;100266.88;5033315;28;20626;-77
2024/03/12 07:36:32;;;;;;;9.23;8.33;;;;;;;9.32;83.63;100285.09;5033549;28;20244;-77
2024/03/12 07:38:59;;;;;;;10.23;9.47;;;;;;;9.31;83.47;100276.41;5032349;28;20314;-77
2024/03/12 07:41:26;;;;;;;9.90;9.00;;;;;;;9.42;82.88;100283.22;5033007;28;20262;-77
2024/03/12 07:43:53;;;;;;;9.93;9.13;;;;;;;9.53;82.53;100292.56;5033223;28;20207;-76
2024/03/12 07:46:20;;;;;;;10.80;9.90;;;;;;;9.61;82.42;100296.75;5033230;28;20223;-78
2024/03/12 07:48:47;;;;;;;9.80;8.93;;;;;;;9.55;82.10;100323.78;5033238;28;20229;-77
2024/03/12 07:51:14;;;;;;;9.93;9.13;;;;;;;9.59;81.86;100317.63;5041049;28;20977;-76
2024/03/12 07:53:40;;;;;;;9.73;8.73;;;;;;;9.67;81.77;100330.53;5033071;28;20624;-77
2024/03/12 07:56:07;;;;;;;8.67;8.03;;;;;;;9.69;82.17;100326.16;5032991;28;20221;-77
2024/03/12 07:58:35;;;;;;;9.53;8.73;;;;;;;9.79;82.17;100326.84;5033163;28;20206;-77
2024/03/12 08:01:01;;;;;;;10.43;9.53;;;;;;;9.77;81.92;100336.44;5031938;28;20230;-77
2024/03/12 08:03:29;;;;;;;9.17;8.37;;;;;;;9.70;80.81;100372.19;5032182;28;20207;-77
2024/03/12 08:05:55;;;;;;;9.27;8.57;;;;;;;9.81;81.04;100372.00;5032185;28;20235;-77
2024/03/12 08:08:22;;;;;;;8.83;8.10;;;;;;;9.88;80.34;100376.25;5031680;28;20240;-77
2024/03/12 08:10:48;;;;;;;10.87;8.80;;;;;;;9.87;80.68;100387.53;5031493;28;20226;-76
2024/03/12 08:13:15;;;;;;;10.20;9.40;;;;;;;9.71;80.34;100399.97;5031311;28;20221;-76
2024/03/12 08:15:41;;;;;;;9.30;8.60;;;;;;;9.84;81.12;100390.22;5031901;28;20204;-77
2024/03/12 08:18:09;;;;;;;9.77;8.97;;;;;;;9.90;81.08;100392.72;5032447;28;20260;-77
2024/03/12 08:20:37;;;;;;;11.00;10.10;;;;;;;9.94;80.51;100399.59;5040799;28;20318;-76
2024/03/12 08:23:04;;;;;;;11.53;10.57;;;;;;;9.78;80.23;100409.41;5044146;28;20211;-77
2024/03/12 08:25:31;;;;;;;11.57;10.53;;;;;;;9.92;80.96;100403.97;5052421;28;20641;-77
2024/03/12 08:27:58;;;;;;;11.97;10.97;;;;;;;9.98;80.95;100400.41;5052734;28;20296;-78
2024/03/12 08:30:24;;;;;;;12.50;11.30;;;;;;;9.70;81.85;100393.91;5052504;28;20231;-77
2024/03/12 08:32:51;;;;;;;12.60;11.40;;;;;;;9.98;81.73;100389.97;5052046;28;20230;-78
2024/03/12 08:35:18;;;;;;;12.87;11.70;;;;;;;10.13;81.32;100393.19;5052480;28;20264;-77
2024/03/12 08:37:46;;;;;;;12.63;11.43;;;;;;;10.08;81.64;100395.00;5051747;28;20711;-77
2024/03/12 08:40:14;;;;;;;14.27;12.97;;;;;;;10.09;81.63;100395.88;5051758;28;20309;-77
2024/03/12 08:42:40;;;;;;;15.50;14.10;;;;;;;10.29;81.61;100377.25;5051780;28;20625;-77
2024/03/12 08:45:08;;;;;;;14.97;13.40;;;;;;;10.30;81.71;100387.66;5051899;28;20651;-77
2024/03/12 08:47:35;;;;;;;15.83;14.40;;;;;;;10.40;81.64;100382.28;5051834;28;20211;-76
2024/03/12 08:50:02;;;;;;;14.97;13.53;;;;;;;10.47;81.80;100394.34;5051712;28;20217;-78
2024/03/12 08:52:29;;;;;;;16.50;14.90;;;;;;;10.42;81.81;100396.16;5036267;28;20208;-77
2024/03/12 08:54:57;;;;;;;17.20;15.70;;;;;;;10.36;82.21;100385.84;5031825;28;20292;-78
2024/03/12 08:57:26;;;;;;;16.83;15.23;;;;;;;10.41;82.80;100378.81;5031963;28;20230;-77
2024/03/12 08:59:52;;;;;;;17.70;16.03;;;;;;;10.29;82.26;100387.69;5031244;28;20232;-76
2024/03/12 09:02:19;;;;;;;17.83;15.97;;;;;;;10.44;82.59;100382.19;5031667;28;20234;-77
2024/03/12 09:04:45;;;;;;;21.50;19.20;;;;;;;10.16;83.54;100363.56;5031685;28;20212;-77
2024/03/12 09:07:13;;;;;;;27.97;20.07;;;;;;;10.29;83.85;100352.03;5031576;28;20621;-77
2024/03/12 09:09:40;;;;;;;24.80;19.77;;;;;;;10.52;83.33;100340.28;5031734;28;20325;-77
2024/03/12 09:12:08;;;;;;;24.57;20.27;;;;;;;10.68;83.04;100353.88;5032834;28;20239;-77
2024/03/12 09:14:35;;;;;;;25.20;20.30;;;;;;;10.46;83.00;100364.75;5033081;28;20238;-78
2024/03/12 09:17:05;;;;;;;25.23;21.53;;;;;;;10.72;82.70;100364.25;5031688;28;20259;-77
2024/03/12 09:19:31;;;;;;;27.43;20.63;;;;;;;10.59;82.14;100388.88;5031660;28;20242;-77
2024/03/12 09:21:59;;;;;;;27.07;21.83;;;;;;;10.35;82.58;100398.03;5031194;28;20555;-77
2024/03/12 09:24:26;;;;;;;23.97;20.33;;;;;;;10.47;82.79;100391.72;5032993;28;20300;-78
2024/03/12 09:26:53;;;;;;;24.77;20.73;;;;;;;10.41;83.30;100382.28;5032597;28;20300;-78
2024/03/12 09:29:22;;;;;;;23.30;20.53;;;;;;;10.54;82.61;100388.09;5032036;28;20271;-77
2024/03/12 09:31:48;;;;;;;25.30;19.57;;;;;;;10.63;83.99;100385.31;5033581;28;20213;-77
2024/03/12 09:34:16;;;;;;;24.13;20.20;;;;;;;10.80;83.31;100364.09;5036646;28;20210;-77
2024/03/12 09:36:42;;;;;;;23.33;20.33;;;;;;;10.96;82.88;100376.81;5031877;28;20227;-77
2024/03/12 09:39:11;;;;;;;26.83;20.70;;;;;;;11.08;81.68;100403.53;5031544;28;20656;-77
2024/03/12 09:41:39;;;;;;;25.37;19.63;;;;;;;11.13;80.68;100432.16;5032482;28;20211;-77
2024/03/12 09:44:10;;;;;;;19.97;17.70;;;;;;;11.30;80.67;100442.25;5032321;28;20211;-77
2024/03/12 09:46:39;;;;;;;23.80;17.90;;;;;;;11.33;79.92;100466.53;4354089;28;10000690;-77
2024/03/12 09:49:06;;;;;;;22.23;18.30;;;;;;;11.03;79.60;100501.16;5047444;28;20229;-77
2024/03/12 09:51:34;;;;;;;23.77;19.30;;;;;;;10.69;79.67;100515.72;5031688;28;20217;-76
2024/03/12 09:54:03;;;;;;;19.97;17.93;;;;;;;10.98;80.21;100498.66;5028231;28;20210;-76
2024/03/12 09:56:30;;;;;;;19.97;17.77;;;;;;;10.93;80.23;100496.13;5031468;28;20256;-77
2024/03/12 09:58:59;;;;;;;22.67;17.90;;;;;;;10.84;80.60;100490.19;5031470;28;20629;-77
2024/03/12 10:01:25;;;;;;;20.30;18.10;;;;;;;10.96;81.30;100482.16;5031905;28;20224;-76
2024/03/12 10:03:55;;;;;;;19.10;17.20;;;;;;;10.77;81.03;100483.41;5031900;28;20202;-78
2024/03/12 10:06:22;;;;;;;20.13;16.50;;;;;;;10.96;81.27;100476.03;5031637;28;20721;-78
2024/03/12 10:08:48;;;;;;;19.97;16.80;;;;;;;10.86;80.78;100485.81;5031237;28;20637;-79
2024/03/12 10:11:21;;;;;;;26.57;17.90;;;;;;;10.95;81.97;100456.06;5031634;28;20217;-76
2024/03/12 10:13:55;;;;;;;23.77;17.40;;;;;;;10.36;83.61;100446.72;5031498;28;20237;-77
2024/03/12 10:16:24;;;;;;;23.30;18.03;;;;;;;10.33;84.16;100429.38;5031596;28;20209;-77
2024/03/12 10:19:08;;;;;;;27.10;17.83;;;;;;;10.64;83.99;100404.44;5031580;28;20224;-77
2024/03/12 10:21:36;;;;;;;23.80;17.83;;;;;;;10.84;84.28;100385.75;5032572;28;20370;-77
2024/03/12 10:24:13;;;;;;;24.53;17.20;;;;;;;10.98;83.48;100398.53;5032238;28;20222;-77
2024/03/12 10:26:40;;;;;;;18.97;16.87;;;;;;;11.00;82.44;100417.63;5031462;28;20202;-77
2024/03/12 10:29:11;;;;;;;22.33;18.23;;;;;;;11.07;82.14;100437.53;5030830;28;20232;-78
2024/03/12 10:31:39;;;;;;;22.93;17.37;;;;;;;11.03;81.98;100455.00;5031274;28;20288;-78
2024/03/12 10:34:12;;;;;;;19.37;17.33;;;;;;;11.19;81.70;100462.53;5030956;28;20280;-76
2024/03/12 10:36:42;;;;;;;21.33;18.20;;;;;;;11.21;81.98;100465.97;5031871;28;20235;-77
2024/03/12 10:39:12;;;;;;;20.27;17.87;;;;;;;10.70;82.77;100470.47;5032017;28;20338;-77
2024/03/12 10:41:39;;;;;;;20.93;18.37;;;;;;;10.56;83.22;100467.22;5034279;28;20207;-78
2024/03/12 10:44:10;;;;;;;24.40;18.47;;;;;;;10.71;83.48;100434.75;5034081;28;20256;-78
2024/03/12 10:46:38;;;;;;;22.97;18.67;;;;;;;10.57;83.84;100431.56;5033833;28;20219;-77
2024/03/12 10:49:10;;;;;;;24.57;18.57;;;;;;;10.66;84.12;100420.94;5033297;28;20263;-77
2024/03/12 10:51:41;;;;;;;24.33;18.53;;;;;;;10.69;83.76;100429.56;5035119;28;20222;-77
2024/03/12 10:54:13;;;;;;;23.30;17.87;;;;;;;10.84;83.95;100425.81;5033968;28;20203;-78
2024/03/12 10:56:41;;;;;;;24.40;18.60;;;;;;;10.63;84.25;100424.47;5033738;28;20242;-78
2024/03/12 10:59:09;;;;;;;22.90;19.07;;;;;;;10.64;84.40;100422.72;5033192;28;20797;-78
2024/03/12 11:01:36;;;;;;;19.83;16.83;;;;;;;10.61;84.00;100428.84;5033842;28;20667;-76
2024/03/12 11:04:05;;;;;;;27.17;18.13;;;;;;;10.36;84.82;100438.88;5033502;28;20704;-77
2024/03/12 11:06:35;;;;;;;24.00;17.97;;;;;;;10.19;86.78;100389.59;5032565;28;20211;-77
2024/03/12 11:09:04;;;;;;;21.33;17.77;;;;;;;9.83;89.61;100358.09;5033129;28;20613;-77
2024/03/12 11:11:30;;;;;;;22.73;17.60;;;;;;;10.26;89.24;100307.72;5033477;28;20212;-77
2024/03/12 11:14:01;;;;;;;25.53;18.67;;;;;;;10.07;89.65;100304.63;5033149;28;20208;-77
2024/03/12 11:16:31;;;;;;;22.83;18.47;;;;;;;10.38;89.06;100287.53;5033359;28;20209;-76
2024/03/12 11:18:58;;;;;;;21.50;18.93;;;;;;;10.45;87.28;100317.84;5033108;28;20236;-77
2024/03/12 11:21:32;;;;;;;21.47;19.20;;;;;;;10.41;86.78;100350.97;5047021;28;20649;-75
2024/03/12 11:23:58;;;;;;;24.33;17.70;;;;;;;10.28;86.21;100357.25;5052868;28;20213;-77
2024/03/12 11:26:30;;;;;;;21.40;17.77;;;;;;;10.55;85.87;100350.69;5053187;28;20263;-77
2024/03/12 11:28:57;;;;;;;22.70;18.60;;;;;;;10.65;85.63;100369.63;5052952;28;20209;-77
2024/03/12 11:31:23;;;;;;;19.47;17.37;;;;;;;10.41;85.60;100377.06;5053175;28;20215;-76
2024/03/12 11:33:51;;;;;;;22.10;19.10;;;;;;;10.59;84.88;100393.25;5053026;28;20202;-77